Time;durP1;ratioP1;P1;durP2;ratioP2;P2;SDS_P1;SDS_P2;PMS_P1;PMS_P2;Temp;Humidity;BMP_temperature;BMP_pressure;BME280_temperature;BME280_humidity;BME280_pressure;Samples;Min_cycle;Max_cycle;Signal;HPM_P1;HPM_P2
2023/01/21 00:00:07;;;;;;;40.97;16.52;;;;;;;-4.31;90.51;101851.44;5093743;28;20055;-67
2023/01/21 00:02:33;;;;;;;37.53;17.13;;;;;;;-4.34;90.73;101851.50;5093016;28;20131;-66
2023/01/21 00:05:00;;;;;;;39.53;16.63;;;;;;;-4.31;90.98;101850.59;5092813;28;20043;-68
2023/01/21 00:07:27;;;;;;;35.30;16.73;;;;;;;-4.33;91.44;101848.00;5093365;28;20140;-68
2023/01/21 00:09:53;;;;;;;40.83;16.23;;;;;;;-4.32;91.00;101852.31;5073692;28;20036;-69
2023/01/21 00:12:20;;;;;;;43.78;15.43;;;;;;;-4.33;91.39;101852.38;5094342;28;20127;-67
2023/01/21 00:14:46;;;;;;;31.90;15.48;;;;;;;-4.35;91.69;101860.25;5081457;28;20044;-68
2023/01/21 00:17:13;;;;;;;35.42;16.05;;;;;;;-4.29;91.93;101867.13;5075899;28;22383;-67
2023/01/21 00:19:39;;;;;;;37.00;16.02;;;;;;;-4.40;92.28;101854.28;5091120;28;20044;-68
2023/01/21 00:22:06;;;;;;;30.50;13.48;;;;;;;-4.38;92.17;101860.34;5092891;28;20044;-68
2023/01/21 00:24:32;;;;;;;31.60;13.15;;;;;;;-4.33;91.81;101852.38;5093305;28;20040;-68
2023/01/21 00:26:59;;;;;;;31.08;13.60;;;;;;;-4.29;91.31;101856.63;5093550;28;20127;-67
2023/01/21 00:29:25;;;;;;;34.40;13.73;;;;;;;-4.35;90.88;101854.16;5092160;28;20040;-67
2023/01/21 00:31:52;;;;;;;35.28;13.85;;;;;;;-4.34;90.93;101861.13;5093537;28;20048;-67
2023/01/21 00:34:18;;;;;;;34.50;14.88;;;;;;;-4.39;91.72;101866.47;5092634;28;20119;-67
2023/01/21 00:36:45;;;;;;;36.47;14.57;;;;;;;-4.35;91.96;101865.50;5092734;28;20495;-68
2023/01/21 00:39:11;;;;;;;33.30;13.45;;;;;;;-4.32;91.77;101870.66;5091720;28;20051;-70
2023/01/21 00:41:38;;;;;;;36.78;12.77;;;;;;;-4.40;91.29;101877.84;5091645;28;20407;-68
2023/01/21 00:44:04;;;;;;;26.80;11.68;;;;;;;-4.46;91.24;101875.38;5091487;28;20054;-67
2023/01/21 00:46:31;;;;;;;24.65;11.43;;;;;;;-4.45;91.50;101878.84;5092042;28;20051;-67
2023/01/21 00:48:59;;;;;;;27.33;12.88;;;;;;;-4.53;92.07;101876.41;5092614;28;20070;-67
2023/01/21 00:51:26;;;;;;;28.27;11.52;;;;;;;-4.60;92.80;101886.16;5092634;28;20047;-68
2023/01/21 00:53:53;;;;;;;24.30;11.63;;;;;;;-4.52;92.90;101886.88;5093561;28;20126;-67
2023/01/21 00:56:19;;;;;;;27.85;12.80;;;;;;;-4.54;92.56;101901.75;5091695;28;20044;-68
2023/01/21 00:58:46;;;;;;;36.83;12.65;;;;;;;-4.52;93.36;101899.97;5092105;28;20055;-67
2023/01/21 01:01:16;;;;;;;23.60;11.35;;;;;;;-4.65;93.54;101901.13;5091337;28;20131;-68
2023/01/21 01:03:43;;;;;;;25.45;12.25;;;;;;;-4.71;94.27;101909.09;5091241;28;20059;-67
2023/01/21 01:06:13;;;;;;;25.77;12.20;;;;;;;-4.65;94.20;101914.22;5091569;28;20048;-67
2023/01/21 01:08:41;;;;;;;30.17;12.40;;;;;;;-4.64;94.12;101909.84;5091202;28;20062;-68
2023/01/21 01:11:08;;;;;;;25.63;10.65;;;;;;;-4.65;94.03;101914.22;5084407;28;20043;-69
2023/01/21 01:13:35;;;;;;;24.58;10.43;;;;;;;-4.70;93.73;101921.28;5092295;28;20047;-69
2023/01/21 01:16:02;;;;;;;25.77;11.35;;;;;;;-4.70;93.58;101917.81;5091359;28;20070;-68
2023/01/21 01:18:32;;;;;;;31.00;11.48;;;;;;;-4.70;94.06;101920.44;5092210;28;20044;-69
2023/01/21 01:20:59;;;;;;;26.33;11.50;;;;;;;-4.64;94.51;101925.53;5090580;28;20073;-67
2023/01/21 01:23:26;;;;;;;25.80;12.48;;;;;;;-4.56;94.32;101934.09;5090318;28;20408;-68
2023/01/21 01:26:01;;;;;;;29.65;12.95;;;;;;;-4.48;94.51;101932.19;5088905;28;20127;-67
2023/01/21 01:28:29;;;;;;;25.45;12.00;;;;;;;-4.48;94.22;101937.41;5088086;28;20070;-68
2023/01/21 01:30:56;;;;;;;32.10;12.40;;;;;;;-4.47;94.34;101940.91;5088139;28;20062;-67
2023/01/21 01:33:23;;;;;;;26.70;12.48;;;;;;;-4.46;94.64;101940.84;5090531;28;20051;-68
2023/01/21 01:35:50;;;;;;;26.92;12.90;;;;;;;-4.37;94.27;101940.66;5089159;28;20056;-67
2023/01/21 01:38:19;;;;;;;22.45;11.60;;;;;;;-4.39;93.30;101934.56;5088820;28;20072;-69
2023/01/21 01:40:47;;;;;;;24.55;10.52;;;;;;;-4.53;93.46;101939.25;5091559;28;20492;-67
2023/01/21 01:43:26;;;;;;;23.42;9.98;;;;;;;-4.58;93.26;101935.91;5092336;28;20040;-67
2023/01/21 01:45:53;;;;;;;26.33;10.40;;;;;;;-4.52;93.15;101933.13;5088746;28;20400;-67
2023/01/21 01:48:30;;;;;;;20.98;10.18;;;;;;;-4.51;93.26;101929.63;5090524;28;20056;-67
2023/01/21 01:51:00;;;;;;;22.95;9.80;;;;;;;-4.49;92.41;101938.28;5088073;28;20071;-67
2023/01/21 01:53:28;;;;;;;17.38;9.35;;;;;;;-4.55;91.67;101943.69;5091711;28;20492;-67
2023/01/21 01:55:54;;;;;;;20.33;9.00;;;;;;;-4.54;90.39;101942.78;5090587;28;20051;-67
2023/01/21 01:58:21;;;;;;;27.48;10.85;;;;;;;-4.53;90.08;101940.13;5091841;28;20076;-67
2023/01/21 02:00:48;;;;;;;20.85;10.55;;;;;;;-4.46;89.65;101943.47;5089357;28;20060;-68
2023/01/21 02:09:40;;;;;;;34.00;13.38;;;;;;;-4.38;89.55;101944.19;5070000;28;20527;-68
2023/01/21 02:12:06;;;;;;;30.20;13.20;;;;;;;-4.41;90.15;101946.88;5069660;28;20055;-67
2023/01/21 02:14:41;;;;;;;26.88;12.88;;;;;;;-4.33;90.16;101957.16;5069241;28;20064;-67
2023/01/21 02:17:40;;;;;;;34.03;15.05;;;;;;;-4.32;90.28;101953.63;5070838;28;20045;-67
2023/01/21 02:20:21;;;;;;;38.78;15.68;;;;;;;-4.34;90.70;101953.69;5056265;28;20079;-67
2023/01/21 02:22:48;;;;;;;37.72;16.23;;;;;;;-4.26;90.56;101950.88;5068183;28;20055;-67
2023/01/21 02:25:45;;;;;;;41.17;17.05;;;;;;;-4.21;90.43;101951.63;5067026;28;20139;-68
2023/01/21 02:28:21;;;;;;;45.28;17.20;;;;;;;-4.28;90.66;101955.28;5069060;28;20442;-67
2023/01/21 02:31:15;;;;;;;36.22;17.38;;;;;;;-4.27;91.52;101954.41;5068018;28;20049;-67
2023/01/21 02:33:41;;;;;;;37.92;17.38;;;;;;;-4.12;90.95;101961.06;5068192;28;20044;-67
2023/01/21 02:36:21;;;;;;;50.25;20.25;;;;;;;-4.06;89.51;101956.53;5067785;28;20075;-68
2023/01/21 02:39:06;;;;;;;40.30;17.58;;;;;;;-4.16;89.36;101957.66;5067072;28;20051;-67
2023/01/21 02:41:35;;;;;;;38.85;17.15;;;;;;;-4.18;90.54;101961.19;5068525;28;20506;-68
2023/01/21 02:44:17;;;;;;;39.38;18.42;;;;;;;-4.13;90.30;101959.34;5073105;28;20058;-67
2023/01/21 02:47:08;;;;;;;45.50;19.13;;;;;;;-4.16;90.73;101962.03;5072482;28;20135;-67
2023/01/21 02:50:29;;;;;;;45.58;18.73;;;;;;;-4.14;90.45;101965.47;5032020;28;20045;-67
2023/01/21 02:52:57;;;;;;;43.55;18.13;;;;;;;-4.11;90.83;101957.53;4989355;28;20134;-67
2023/01/21 02:55:29;;;;;;;48.47;18.75;;;;;;;-4.09;89.89;101966.22;4991919;28;20480;-67
2023/01/21 02:58:00;;;;;;;38.40;17.23;;;;;;;-4.09;89.11;101968.84;4991394;28;20048;-67
2023/01/21 03:00:30;;;;;;;;;;;;;;;-4.04;89.80;101951.25;4988430;28;20106;-67
2023/01/21 03:03:21;;;;;;;47.67;18.00;;;;;;;-4.10;90.24;101954.03;4991637;28;20390;-67
2023/01/21 03:06:15;;;;;;;37.90;17.67;;;;;;;-4.12;90.68;101955.81;5009866;28;20108;-67
2023/01/21 03:08:46;;;;;;;41.40;18.27;;;;;;;-4.10;90.71;101961.91;5010910;28;20425;-67
2023/01/21 03:11:14;;;;;;;;;;;;;;;-3.95;90.26;101961.53;5011334;28;20056;-67
2023/01/21 03:16:56;;;;;;;34.78;16.83;;;;;;;-4.00;90.21;101968.66;5011822;28;20037;-68
2023/01/21 03:19:40;;;;;;;37.13;17.10;;;;;;;-4.03;90.00;101981.81;5010389;28;20461;-67
2023/01/21 03:22:18;;;;;;;40.90;17.88;;;;;;;-3.95;89.82;101981.63;5010987;28;20049;-68
2023/01/21 03:24:49;;;;;;;42.78;17.65;;;;;;;-4.00;89.51;101984.38;5011875;28;20493;-68
2023/01/21 03:27:20;;;;;;;33.95;15.70;;;;;;;-3.96;89.19;101972.91;5050339;28;20052;-68
2023/01/21 03:29:49;;;;;;;41.13;17.38;;;;;;;-3.97;89.08;101986.03;5073225;28;20112;-67
2023/01/21 03:32:19;;;;;;;38.55;17.30;;;;;;;-3.88;88.73;101976.19;5073813;28;20051;-67
2023/01/21 03:34:50;;;;;;;34.33;13.43;;;;;;;-3.85;88.62;101972.66;5068934;28;20124;-69
2023/01/21 03:37:26;;;;;;;42.00;18.08;;;;;;;-3.95;88.94;101968.53;5073587;28;20048;-67
2023/01/21 03:40:06;;;;;;;38.08;16.63;;;;;;;-3.84;88.58;101972.59;5069043;28;20135;-67
2023/01/21 03:42:33;;;;;;;33.67;16.10;;;;;;;-3.86;88.61;101971.78;5078208;28;20045;-68
2023/01/21 03:45:00;;;;;;;34.65;15.40;;;;;;;-3.87;88.40;101983.16;5072768;28;20044;-67
2023/01/21 03:47:37;;;;;;;35.58;15.95;;;;;;;-3.86;87.98;101973.53;5072413;28;20106;-67
2023/01/21 03:50:09;;;;;;;36.30;15.07;;;;;;;-3.92;88.74;101978.94;5066660;28;20463;-66
2023/01/21 03:52:41;;;;;;;32.65;14.48;;;;;;;-3.82;87.83;101975.22;5071422;28;20051;-67
2023/01/21 03:55:10;;;;;;;33.75;15.05;;;;;;;-3.87;87.92;101983.16;5071259;28;20408;-67
2023/01/21 03:57:36;;;;;;;32.88;15.65;;;;;;;-3.87;88.13;101971.81;5072340;28;20045;-67
2023/01/21 04:00:04;;;;;;;31.00;14.95;;;;;;;-3.75;88.11;101965.44;5072446;28;20480;-67
2023/01/21 04:02:31;;;;;;;33.88;15.05;;;;;;;-3.82;88.17;101964.72;5071226;28;20060;-67
2023/01/21 04:04:57;;;;;;;28.23;13.60;;;;;;;-3.83;87.67;101963.88;5066349;28;20044;-67
2023/01/21 04:07:24;;;;;;;33.13;15.05;;;;;;;-3.81;88.27;101967.28;5091197;28;20048;-67
2023/01/21 04:09:51;;;;;;;29.40;13.82;;;;;;;-3.86;88.42;101963.94;5091309;28;20048;-67
2023/01/21 04:12:17;;;;;;;27.08;13.68;;;;;;;-3.81;87.71;101958.56;5091617;28;20127;-67
2023/01/21 04:14:44;;;;;;;30.95;14.45;;;;;;;-3.83;88.33;101960.34;5091063;28;20051;-67
2023/01/21 04:17:10;;;;;;;30.65;13.07;;;;;;;-3.88;87.96;101965.72;5091768;28;20044;-67
2023/01/21 04:19:37;;;;;;;28.33;13.15;;;;;;;-3.89;88.92;101964.00;5091782;28;20055;-67
2023/01/21 04:22:03;;;;;;;31.35;13.88;;;;;;;-3.90;88.78;101957.00;5092016;28;20150;-68
2023/01/21 04:24:30;;;;;;;25.08;13.60;;;;;;;-3.87;88.47;101962.19;5091232;28;20044;-67
2023/01/21 04:26:59;;;;;;;28.15;13.30;;;;;;;-3.88;88.30;101959.63;5091290;28;20427;-67
2023/01/21 04:29:26;;;;;;;26.77;13.05;;;;;;;-3.84;88.68;101977.00;5090478;28;20101;-67
2023/01/21 04:31:53;;;;;;;26.63;11.35;;;;;;;-3.92;88.52;101964.06;5091158;28;20127;-67
2023/01/21 04:34:19;;;;;;;29.40;12.52;;;;;;;-3.87;88.70;101974.44;5091362;28;20089;-67
2023/01/21 04:36:46;;;;;;;22.27;11.07;;;;;;;-3.86;88.76;101974.41;5090814;28;20482;-67
2023/01/21 04:39:13;;;;;;;22.30;11.57;;;;;;;-3.87;88.74;101984.94;5090725;28;20487;-67
2023/01/21 04:41:42;;;;;;;21.00;11.15;;;;;;;-3.84;88.46;101982.22;5090720;28;20044;-67
2023/01/21 04:44:09;;;;;;;26.80;12.20;;;;;;;-3.86;88.94;101979.66;5091564;28;20044;-67
2023/01/21 04:46:35;;;;;;;23.00;11.43;;;;;;;-3.85;89.23;101985.75;5092104;28;20044;-67
2023/01/21 04:49:02;;;;;;;20.10;9.80;;;;;;;-3.86;88.50;101984.91;5090587;28;20380;-67
2023/01/21 04:51:28;;;;;;;21.30;11.00;;;;;;;-3.86;89.13;101990.16;5072772;28;20487;-68
2023/01/21 04:53:55;;;;;;;19.63;10.13;;;;;;;-3.84;88.91;101988.34;5090887;28;20091;-66
2023/01/21 04:56:21;;;;;;;19.92;10.48;;;;;;;-3.80;89.34;101986.50;5090670;28;20050;-67
2023/01/21 04:58:48;;;;;;;26.77;10.50;;;;;;;-3.87;89.25;101983.16;5091216;28;20059;-68
2023/01/21 05:01:14;;;;;;;17.98;9.63;;;;;;;-3.82;89.22;101981.31;5090489;28;20088;-66
2023/01/21 05:03:41;;;;;;;20.90;10.23;;;;;;;-3.84;88.84;101977.84;5089706;28;20514;-67
2023/01/21 05:06:08;;;;;;;20.80;8.98;;;;;;;-3.83;89.04;101989.19;5091568;28;20047;-67
2023/01/21 05:08:34;;;;;;;21.48;9.30;;;;;;;-3.87;89.24;101998.88;5091023;28;20062;-66
2023/01/21 05:11:01;;;;;;;24.42;10.63;;;;;;;-3.83;89.00;101999.69;5085387;28;20519;-68
2023/01/21 05:13:27;;;;;;;22.20;10.43;;;;;;;-3.91;90.24;102002.50;5090946;28;20044;-66
2023/01/21 05:15:54;;;;;;;20.23;9.60;;;;;;;-3.86;89.77;102002.38;5090219;28;20046;-67
2023/01/21 05:18:21;;;;;;;22.17;9.20;;;;;;;-3.88;90.29;102007.66;5090072;28;20438;-67
2023/01/21 05:20:47;;;;;;;24.70;10.38;;;;;;;-3.92;90.05;102011.25;5090009;28;20058;-67
2023/01/21 05:23:14;;;;;;;20.30;10.15;;;;;;;-3.89;90.72;102016.44;5091105;28;20044;-67
2023/01/21 05:25:40;;;;;;;20.90;10.45;;;;;;;-3.93;90.33;102008.66;5090608;28;20055;-66
2023/01/21 05:28:07;;;;;;;21.95;9.27;;;;;;;-3.91;91.04;102012.97;5091315;28;20518;-67
2023/01/21 05:30:33;;;;;;;22.83;10.68;;;;;;;-3.89;90.96;102010.34;5089401;28;20046;-67
2023/01/21 05:33:01;;;;;;;21.25;10.25;;;;;;;-3.87;90.41;102012.00;5090104;28;20451;-67
2023/01/21 05:35:28;;;;;;;19.65;9.45;;;;;;;-3.89;90.61;102015.59;5089241;28;20473;-67
2023/01/21 05:37:54;;;;;;;22.83;10.32;;;;;;;-3.87;90.40;102019.00;5089694;28;20476;-66
2023/01/21 05:40:21;;;;;;;19.20;9.70;;;;;;;-3.91;90.55;102018.22;5089740;28;20055;-66
2023/01/21 05:42:47;;;;;;;22.40;10.75;;;;;;;-3.83;90.28;102018.94;5089363;28;20054;-67
2023/01/21 05:45:14;;;;;;;28.75;10.52;;;;;;;-3.82;90.18;102017.16;5090187;28;20414;-66
2023/01/21 05:47:40;;;;;;;19.42;9.75;;;;;;;-3.81;90.06;102029.38;5088888;28;20434;-68
2023/01/21 05:50:08;;;;;;;21.25;9.75;;;;;;;-3.77;89.50;102024.00;5089946;28;20449;-68
2023/01/21 05:52:35;;;;;;;22.45;10.98;;;;;;;-3.74;89.26;102028.31;5091150;28;20043;-66
2023/01/21 05:55:03;;;;;;;19.17;10.15;;;;;;;-3.75;89.41;102028.38;5072921;28;20139;-66
2023/01/21 05:57:30;;;;;;;17.35;9.55;;;;;;;-3.77;89.54;102029.25;5090518;28;20070;-69
2023/01/21 05:59:57;;;;;;;18.85;9.95;;;;;;;-3.73;89.48;102029.19;5090953;28;20054;-66
2023/01/21 06:02:24;;;;;;;23.85;10.40;;;;;;;-3.74;90.16;102035.31;5091151;28;20044;-67
2023/01/21 06:04:50;;;;;;;24.80;9.60;;;;;;;-3.80;89.74;102037.19;5091355;28;20044;-67
2023/01/21 06:07:17;;;;;;;22.33;9.75;;;;;;;-3.78;89.95;102034.53;5090771;28;20467;-66
2023/01/21 06:09:43;;;;;;;25.95;10.85;;;;;;;-3.68;89.39;102045.69;5083579;28;20492;-67
2023/01/21 06:12:10;;;;;;;21.25;10.88;;;;;;;-3.68;89.95;102030.81;5090991;28;20131;-67
2023/01/21 06:14:36;;;;;;;23.88;10.48;;;;;;;-3.59;90.19;102034.94;5090298;28;20051;-66
2023/01/21 06:17:02;;;;;;;20.15;10.10;;;;;;;-3.51;89.72;102034.78;5091702;28;20044;-68
2023/01/21 06:19:29;;;;;;;20.77;10.70;;;;;;;-3.56;88.85;102040.13;5095370;28;20036;-68
2023/01/21 06:21:55;;;;;;;25.75;11.48;;;;;;;-3.54;88.87;102041.81;5094953;28;20093;-67
2023/01/21 06:24:22;;;;;;;23.02;11.63;;;;;;;-3.61;89.00;102037.63;5093680;28;20139;-78
2023/01/21 06:26:48;;;;;;;23.70;11.63;;;;;;;-3.58;88.81;102047.19;5094729;28;20052;-67
2023/01/21 06:29:15;;;;;;;27.17;12.48;;;;;;;-3.66;89.45;102054.34;5095173;28;20123;-66
2023/01/21 06:31:42;;;;;;;29.85;12.85;;;;;;;-3.61;89.72;102055.97;5093441;28;20407;-67
2023/01/21 06:34:11;;;;;;;34.65;14.68;;;;;;;-3.68;89.58;102057.03;5095238;28;20475;-67
2023/01/21 06:36:41;;;;;;;28.98;12.70;;;;;;;-3.63;89.78;102059.53;5091302;28;20046;-66
2023/01/21 06:39:10;;;;;;;28.88;14.60;;;;;;;-3.70;89.91;102063.19;5094113;28;20072;-66
2023/01/21 06:41:37;;;;;;;35.47;15.05;;;;;;;-3.71;90.16;102057.09;5095174;28;20044;-66
2023/01/21 06:44:04;;;;;;;35.67;14.13;;;;;;;-3.72;90.13;102064.97;5093701;28;20070;-67
2023/01/21 06:46:31;;;;;;;32.80;14.82;;;;;;;-3.70;90.51;102052.72;5094534;28;20058;-67
2023/01/21 06:48:57;;;;;;;33.13;15.65;;;;;;;-3.72;90.67;102059.72;5093503;28;20044;-66
2023/01/21 06:51:24;;;;;;;31.08;14.88;;;;;;;-3.74;90.92;102074.66;5095015;28;20050;-66
2023/01/21 06:53:50;;;;;;;35.65;16.17;;;;;;;-3.73;91.29;102081.63;5093977;28;20047;-66
2023/01/21 06:56:17;;;;;;;35.15;16.33;;;;;;;-3.75;90.78;102070.31;5093749;28;20073;-67
2023/01/21 06:58:43;;;;;;;37.08;17.23;;;;;;;-3.79;90.67;102069.53;5094750;28;20058;-67
2023/01/21 07:01:10;;;;;;;38.47;18.00;;;;;;;-3.72;90.89;102072.84;5095228;28;20044;-67
2023/01/21 07:03:37;;;;;;;43.22;17.85;;;;;;;-3.74;90.93;102069.41;5088062;28;20078;-67
2023/01/21 07:06:03;;;;;;;40.72;17.92;;;;;;;-3.75;90.83;102068.56;5073963;28;20123;-66
2023/01/21 07:08:30;;;;;;;40.25;17.40;;;;;;;-3.80;90.70;102076.50;5073487;28;20408;-66
2023/01/21 07:10:57;;;;;;;37.88;18.10;;;;;;;-3.71;90.40;102075.44;5073021;28;20049;-67
2023/01/21 07:13:23;;;;;;;46.05;18.35;;;;;;;-3.72;90.43;102088.59;5073811;28;20047;-67
2023/01/21 07:15:50;;;;;;;31.55;16.42;;;;;;;-3.77;89.92;102067.72;5074045;28;20040;-67
2023/01/21 07:18:16;;;;;;;34.33;17.00;;;;;;;-3.75;89.55;102078.19;5074415;28;20503;-66
2023/01/21 07:20:43;;;;;;;40.33;16.83;;;;;;;-3.82;89.25;102078.31;5074660;28;20048;-67
2023/01/21 07:23:09;;;;;;;31.08;16.88;;;;;;;-3.77;88.98;102072.97;5074190;28;20498;-67
2023/01/21 07:25:37;;;;;;;42.15;19.05;;;;;;;-3.82;89.05;102074.84;5074340;28;20044;-67
2023/01/21 07:28:03;;;;;;;37.10;17.85;;;;;;;-3.78;89.02;102073.88;5072213;28;20067;-67
2023/01/21 07:30:30;;;;;;;42.00;17.23;;;;;;;-3.90;89.00;102085.47;5073011;28;20055;-67
2023/01/21 07:32:56;;;;;;;39.22;17.83;;;;;;;-3.89;89.13;102075.88;5073358;28;20072;-67
2023/01/21 07:35:23;;;;;;;43.30;18.13;;;;;;;-3.78;89.08;102079.97;5074340;28;20044;-67
2023/01/21 07:37:49;;;;;;;35.92;18.40;;;;;;;-3.73;89.12;102084.25;5074105;28;20048;-67
2023/01/21 07:40:16;;;;;;;35.83;18.75;;;;;;;-3.70;89.83;102090.28;5073506;28;20131;-67
2023/01/21 07:42:42;;;;;;;38.60;18.48;;;;;;;-3.69;89.50;102094.63;5074284;28;20044;-67
2023/01/21 07:45:09;;;;;;;36.80;19.13;;;;;;;-3.72;89.54;102099.97;5074761;28;20060;-67
2023/01/21 07:47:36;;;;;;;43.58;18.95;;;;;;;-3.66;89.30;102099.81;5074044;28;20124;-67
2023/01/21 07:50:07;;;;;;;38.55;19.35;;;;;;;-3.58;88.94;102104.91;5072988;28;20136;-70
2023/01/21 07:52:33;;;;;;;40.28;19.33;;;;;;;-3.61;88.97;102111.06;5071999;28;20044;-67
2023/01/21 07:55:00;;;;;;;45.45;19.63;;;;;;;-3.61;89.00;102105.81;5073494;28;20496;-67
2023/01/21 07:57:27;;;;;;;40.33;18.60;;;;;;;-3.64;88.89;102111.13;5073842;28;20131;-66
2023/01/21 07:59:54;;;;;;;42.67;18.95;;;;;;;-3.62;89.33;102106.72;5072488;28;20393;-66
2023/01/21 08:02:20;;;;;;;40.78;19.13;;;;;;;-3.58;88.70;102099.66;5073400;28;20046;-68
2023/01/21 08:04:47;;;;;;;41.58;19.88;;;;;;;-3.56;88.71;102114.44;5074380;28;20423;-66
2023/01/21 08:07:13;;;;;;;39.22;18.13;;;;;;;-3.51;88.53;102103.84;5091936;28;20051;-67
2023/01/21 08:09:40;;;;;;;35.85;17.90;;;;;;;-3.48;87.80;102108.13;5093550;28;20056;-67
2023/01/21 08:12:07;;;;;;;38.58;18.13;;;;;;;-3.52;87.51;102102.09;5093626;28;20050;-67
2023/01/21 08:14:34;;;;;;;35.35;18.50;;;;;;;-3.52;87.29;102099.47;5091933;28;20049;-67
2023/01/21 08:17:01;;;;;;;34.83;18.60;;;;;;;-3.42;87.37;102111.50;5092963;28;20048;-68
2023/01/21 08:19:27;;;;;;;39.38;18.58;;;;;;;-3.43;87.34;102111.53;5093359;28;20044;-67
2023/01/21 08:21:54;;;;;;;37.67;18.92;;;;;;;-3.36;87.13;102111.34;5092710;28;20055;-67
2023/01/21 08:24:20;;;;;;;35.78;18.38;;;;;;;-3.38;86.89;102104.41;5092650;28;20398;-68
2023/01/21 08:26:47;;;;;;;28.27;15.38;;;;;;;-3.51;87.79;102111.72;5093542;28;20047;-68
2023/01/21 08:29:14;;;;;;;33.10;17.17;;;;;;;-3.46;87.81;102107.22;5092829;28;20123;-68
2023/01/21 08:31:40;;;;;;;35.63;17.92;;;;;;;-3.35;87.32;102106.97;5093294;28;20140;-71
2023/01/21 08:34:07;;;;;;;35.83;17.65;;;;;;;-3.25;86.81;102100.59;5091964;28;20399;-67
2023/01/21 08:36:34;;;;;;;36.47;17.33;;;;;;;-3.35;87.31;102105.19;5092386;28;20059;-68
2023/01/21 08:39:00;;;;;;;35.83;17.55;;;;;;;-3.36;87.63;102106.09;5092788;28;20048;-67
2023/01/21 08:41:27;;;;;;;40.00;18.38;;;;;;;-3.28;87.28;102109.38;5091921;28;20074;-68
2023/01/21 08:43:54;;;;;;;34.45;18.70;;;;;;;-3.21;86.46;102107.47;5091501;28;20076;-67
2023/01/21 08:46:20;;;;;;;33.50;16.65;;;;;;;-3.23;87.09;102105.81;5092401;28;20058;-68
2023/01/21 08:48:47;;;;;;;34.13;17.67;;;;;;;-3.13;86.32;102095.06;5092631;28;20440;-67
2023/01/21 08:51:13;;;;;;;38.83;17.83;;;;;;;-3.11;86.59;102095.84;5093034;28;20126;-67
2023/01/21 08:53:40;;;;;;;35.75;18.25;;;;;;;-3.10;86.77;102092.34;5092368;28;20055;-67
2023/01/21 08:56:06;;;;;;;35.10;17.25;;;;;;;-3.15;87.08;102094.22;5092316;28;20124;-67
2023/01/21 08:58:33;;;;;;;31.13;16.65;;;;;;;-3.06;86.96;102101.88;5091251;28;20407;-68
2023/01/21 09:01:10;;;;;;;34.20;17.15;;;;;;;-3.00;85.78;102100.84;5092796;28;20044;-68
2023/01/21 09:03:37;;;;;;;32.38;17.17;;;;;;;-2.98;86.29;102096.41;5090466;28;20051;-67
2023/01/21 09:06:05;;;;;;;35.70;18.13;;;;;;;-2.99;86.26;102091.22;5090268;28;20063;-67
2023/01/21 09:08:32;;;;;;;32.65;17.38;;;;;;;-3.04;87.40;102096.56;5090452;28;20075;-68
2023/01/21 09:10:59;;;;;;;30.50;16.13;;;;;;;-2.93;87.19;102094.53;5090376;28;20109;-68
2023/01/21 09:13:34;;;;;;;34.85;17.60;;;;;;;-3.03;86.78;102105.31;5089756;28;20052;-68
2023/01/21 09:16:00;;;;;;;32.88;17.30;;;;;;;-2.92;86.62;102100.66;5089380;28;20044;-68
2023/01/21 09:18:27;;;;;;;31.70;16.27;;;;;;;-2.83;85.97;102103.03;5090521;28;20412;-68
2023/01/21 09:20:59;;;;;;;32.75;17.05;;;;;;;-2.94;86.12;102103.31;5090279;28;20055;-68
2023/01/21 09:23:26;;;;;;;33.72;16.67;;;;;;;-2.81;85.53;102102.09;5088938;28;20052;-68
2023/01/21 09:26:03;;;;;;;36.22;17.13;;;;;;;-2.82;85.37;102108.25;5090396;28;20131;-67
2023/01/21 09:28:31;;;;;;;31.80;16.52;;;;;;;-2.89;85.29;102106.69;5089424;28;20051;-67
2023/01/21 09:31:00;;;;;;;33.58;17.58;;;;;;;-2.75;84.93;102103.72;5089472;28;20054;-67
2023/01/21 09:33:28;;;;;;;32.30;16.40;;;;;;;-2.79;85.01;102101.19;5089943;28;20039;-68
2023/01/21 09:35:57;;;;;;;35.72;17.10;;;;;;;-2.79;85.70;102101.19;5090187;28;20044;-67
2023/01/21 09:38:25;;;;;;;33.72;15.95;;;;;;;-2.64;85.92;102101.66;5090143;28;20533;-68
2023/01/21 09:40:52;;;;;;;33.70;17.13;;;;;;;-2.71;85.32;102099.22;5089911;28;20047;-68
2023/01/21 09:43:32;;;;;;;39.88;16.95;;;;;;;-2.60;84.85;102111.16;5089867;28;20126;-68
2023/01/21 09:46:04;;;;;;;36.40;16.40;;;;;;;-2.59;84.53;102106.75;5083322;28;20050;-67
2023/01/21 09:48:37;;;;;;;29.42;16.02;;;;;;;-2.48;83.49;102102.06;5089241;28;20477;-67
2023/01/21 09:51:12;;;;;;;40.22;16.65;;;;;;;-2.57;84.01;102099.72;5089314;28;20051;-67
2023/01/21 09:53:48;;;;;;;31.35;16.52;;;;;;;-2.26;82.94;102112.00;5090246;28;20047;-67
2023/01/21 09:56:29;;;;;;;35.08;17.38;;;;;;;-2.52;83.44;102094.31;5090323;28;20040;-67
2023/01/21 09:59:25;;;;;;;32.80;17.05;;;;;;;-2.58;83.86;102108.47;5089909;28;20048;-68
2023/01/21 10:01:59;;;;;;;36.03;17.33;;;;;;;-2.48;83.10;102099.44;5083166;28;20048;-68
2023/01/21 10:04:31;;;;;;;37.90;17.95;;;;;;;-2.40;82.87;102105.38;5090463;28;20131;-68
2023/01/21 10:07:26;;;;;;;32.35;16.48;;;;;;;-2.48;83.22;102094.19;5091519;28;20044;-67
2023/01/21 10:10:08;;;;;;;35.33;17.40;;;;;;;-2.48;83.41;102101.22;5056445;28;20150;-67
2023/01/21 10:12:57;;;;;;;31.55;15.98;;;;;;;-2.52;83.00;102100.44;5091844;28;20108;-67
2023/01/21 10:15:45;;;;;;;48.13;18.17;;;;;;;-2.48;82.99;102098.59;5049842;28;20119;-68
2023/01/21 10:18:16;;;;;;;33.83;16.15;;;;;;;-2.51;82.86;102090.78;5091994;28;20044;-68
2023/01/21 10:21:03;;;;;;;36.75;16.58;;;;;;;-2.47;82.52;102093.31;5086785;28;20054;-71
2023/01/21 10:23:41;;;;;;;32.25;16.30;;;;;;;-2.34;82.38;102092.06;5091255;28;20103;-66
2023/01/21 10:26:12;;;;;;;31.42;16.00;;;;;;;-2.44;82.89;102082.72;5092109;28;20048;-66
2023/01/21 10:28:43;;;;;;;30.95;15.45;;;;;;;-2.39;82.22;102087.84;5091722;28;20042;-67
2023/01/21 10:31:23;;;;;;;;;;;;;;;-2.38;82.00;102082.50;5091728;28;20048;-69
2023/01/21 10:33:50;;;;;;;34.75;15.77;;;;;;;-2.37;81.55;102089.53;5091375;28;19920;-71
2023/01/21 10:36:44;;;;;;;32.63;15.05;;;;;;;-2.39;81.82;102080.81;5090683;28;20097;-70
2023/01/21 10:39:35;;;;;;;32.15;15.20;;;;;;;-2.35;81.31;102079.81;5091908;28;20028;-67
2023/01/21 10:42:15;;;;;;;29.40;15.20;;;;;;;-2.20;81.64;102077.63;5091047;28;20514;-67
2023/01/21 10:45:00;;;;;;;33.30;14.73;;;;;;;-2.27;81.89;102073.47;5091954;28;20044;-67
2023/01/21 10:47:34;;;;;;;35.65;15.93;;;;;;;-2.17;82.20;102080.19;5090727;28;20058;-66
2023/01/21 10:50:32;;;;;;;28.58;14.10;;;;;;;-2.12;81.50;102073.88;5091662;28;20040;-67
2023/01/21 10:53:20;;;;;;;35.15;15.75;;;;;;;-2.08;81.78;102072.03;5091129;28;20067;-68
2023/01/21 10:56:04;;;;;;;31.00;15.98;;;;;;;-2.01;81.55;102070.09;5088308;28;20055;-69
2023/01/21 10:58:41;;;;;;;34.92;15.32;;;;;;;-1.80;81.09;102081.72;5089240;28;20140;-67
2023/01/21 11:01:17;;;;;;;32.67;15.40;;;;;;;-1.87;81.20;102074.00;5089629;28;20051;-67
2023/01/21 11:03:50;;;;;;;32.83;15.68;;;;;;;-1.73;80.92;102064.84;5091599;28;20380;-67
2023/01/21 11:06:19;;;;;;;35.40;15.27;;;;;;;-1.72;81.70;102070.03;5092577;28;20455;-67
2023/01/21 11:08:50;;;;;;;28.25;15.07;;;;;;;-1.74;81.20;102060.50;5092283;28;20407;-67
2023/01/21 11:11:25;;;;;;;27.63;15.43;;;;;;;-1.59;81.29;102059.13;5092780;28;20040;-66
2023/01/21 11:13:53;;;;;;;26.08;14.07;;;;;;;-1.67;81.98;102047.09;5092161;28;20101;-66
2023/01/21 11:16:47;;;;;;;29.73;14.85;;;;;;;-1.65;82.07;102041.75;5093236;28;20491;-67
2023/01/21 11:19:26;;;;;;;28.83;13.80;;;;;;;-1.67;82.77;102033.94;5089912;28;20438;-67
2023/01/21 11:22:16;;;;;;;27.42;14.38;;;;;;;-1.57;81.89;102034.50;5093094;28;20055;-67
2023/01/21 11:24:46;;;;;;;24.42;13.80;;;;;;;-1.50;82.01;102029.91;5092794;28;20044;-67
2023/01/21 11:27:30;;;;;;;27.25;14.65;;;;;;;-1.39;81.79;102033.03;5092507;28;20043;-67
2023/01/21 11:29:57;;;;;;;24.48;13.73;;;;;;;-1.28;80.67;102016.88;5093159;28;20122;-67
2023/01/21 11:32:26;;;;;;;24.77;13.27;;;;;;;-1.28;81.07;102025.63;5092889;28;20051;-66
2023/01/21 11:35:06;;;;;;;25.85;13.45;;;;;;;-1.45;80.80;102027.97;5093593;28;20051;-67